To NAV CANADA Home Page Login to a new session Search on AWWS site Feedback and Comments Disclaimer Vers la page française équivalente Tips FAQ What's new on the site To the Forecasts and Observations / NOTAM section To "File a Flight Plan" website Publications and other links Update of the User's profile FIC Telephone Numbers My Weather Data Folder Route Weather Data Regional Weather Data Local Weather Data To the Forecasts and Observations / NOTAM section
Request Generated 12/10/2016 at 16:32:53 UTC . Weather information available at that time is displayed.

METAR/TAF

ISLAND LAKE/MB    

METAR CYIV 101600Z 24006KT 12SM -SN BKN010 M21/M23 A3038 RMK SC7
SLP322=
METAR CYIV 101500Z 25006KT 10SM -SN BKN008 M21/M23 A3039 RMK SC7
FROIN SLP324=
METAR CYIV 101400Z 25004KT 6SM -SN BKN008 M22/M25 A3040 RMK SC7 FROIN
SLP327=

TAF AMD CYIV 101504Z 1015/1101 25006KT 5SM -SN IC BKN008 TEMPO
1015/1017 P6SM NSW BKN012
FM101700 20006KT P6SM SCT012 TEMPO 1017/1101 6SM IC BKN012
RMK NXT FCST BY 101900Z=
Your time UTC time
Weather data provided by Environment Canada and NAV CANADA